sensor_id;sensor_type;location;lat;lon;timestamp;pressure;altitude;pressure_sealevel;temperature;humidity
41306;BME280;27051;50.376;19.152;2024-01-27T00:01:14;98446.86;;;5.25;70.69
41306;BME280;27051;50.376;19.152;2024-01-27T00:03:45;98458.52;;;5.20;70.80
41306;BME280;27051;50.376;19.152;2024-01-27T00:06:12;98463.54;;;5.17;70.78
41306;BME280;27051;50.376;19.152;2024-01-27T00:08:40;98475.33;;;5.17;70.79
41306;BME280;27051;50.376;19.152;2024-01-27T00:11:07;98476.88;;;5.19;70.95
41306;BME280;27051;50.376;19.152;2024-01-27T00:13:34;98483.30;;;5.17;70.95
41306;BME280;27051;50.376;19.152;2024-01-27T00:16:02;98488.47;;;5.14;70.79
41306;BME280;27051;50.376;19.152;2024-01-27T00:18:29;98497.10;;;5.08;70.58
41306;BME280;27051;50.376;19.152;2024-01-27T00:20:56;98510.66;;;5.07;70.70
41306;BME280;27051;50.376;19.152;2024-01-27T00:23:23;98519.98;;;5.03;70.38
41306;BME280;27051;50.376;19.152;2024-01-27T00:25:50;98525.34;;;5.01;70.43
41306;BME280;27051;50.376;19.152;2024-01-27T00:28:26;98529.05;;;4.99;70.16
41306;BME280;27051;50.376;19.152;2024-01-27T00:30:53;98531.63;;;4.98;70.02
41306;BME280;27051;50.376;19.152;2024-01-27T00:33:21;98532.86;;;4.94;69.73
41306;BME280;27051;50.376;19.152;2024-01-27T00:35:48;98538.88;;;4.94;69.85
41306;BME280;27051;50.376;19.152;2024-01-27T00:38:15;98533.73;;;4.96;69.79
41306;BME280;27051;50.376;19.152;2024-01-27T00:40:43;98542.25;;;4.97;69.80
41306;BME280;27051;50.376;19.152;2024-01-27T00:43:10;98542.41;;;4.96;69.61
41306;BME280;27051;50.376;19.152;2024-01-27T00:45:37;98554.14;;;4.96;69.31
41306;BME280;27051;50.376;19.152;2024-01-27T00:48:13;98556.92;;;4.95;69.10
41306;BME280;27051;50.376;19.152;2024-01-27T00:50:44;98560.79;;;4.97;68.92
41306;BME280;27051;50.376;19.152;2024-01-27T00:53:22;98560.13;;;4.94;68.71
41306;BME280;27051;50.376;19.152;2024-01-27T00:55:49;98571.14;;;4.93;68.48
41306;BME280;27051;50.376;19.152;2024-01-27T00:58:16;98574.48;;;4.94;68.57
41306;BME280;27051;50.376;19.152;2024-01-27T01:00:43;98583.35;;;4.94;68.47
41306;BME280;27051;50.376;19.152;2024-01-27T01:03:11;98586.55;;;4.96;68.57
41306;BME280;27051;50.376;19.152;2024-01-27T01:05:38;98592.33;;;4.97;68.56
41306;BME280;27051;50.376;19.152;2024-01-27T01:08:05;98596.80;;;4.98;68.52
41306;BME280;27051;50.376;19.152;2024-01-27T01:10:32;98600.15;;;4.98;68.41
41306;BME280;27051;50.376;19.152;2024-01-27T01:13:05;98606.23;;;4.97;68.46
41306;BME280;27051;50.376;19.152;2024-01-27T01:15:35;98601.08;;;5.04;68.48
41306;BME280;27051;50.376;19.152;2024-01-27T01:18:02;98601.50;;;5.03;67.87
41306;BME280;27051;50.376;19.152;2024-01-27T01:20:29;98602.16;;;5.03;67.58
41306;BME280;27051;50.376;19.152;2024-01-27T01:22:56;98615.23;;;5.01;67.34
41306;BME280;27051;50.376;19.152;2024-01-27T01:25:24;98613.21;;;5.00;67.24
41306;BME280;27051;50.376;19.152;2024-01-27T01:27:51;98618.91;;;5.04;67.16
41306;BME280;27051;50.376;19.152;2024-01-27T01:30:21;98623.48;;;5.03;67.28
41306;BME280;27051;50.376;19.152;2024-01-27T01:32:48;98624.65;;;5.02;67.44
41306;BME280;27051;50.376;19.152;2024-01-27T01:35:16;98625.73;;;4.98;67.46
41306;BME280;27051;50.376;19.152;2024-01-27T01:37:45;98626.31;;;4.94;67.67
41306;BME280;27051;50.376;19.152;2024-01-27T01:40:13;98625.87;;;4.91;67.96
41306;BME280;27051;50.376;19.152;2024-01-27T01:42:40;98627.34;;;4.92;67.75
41306;BME280;27051;50.376;19.152;2024-01-27T01:45:11;98625.83;;;4.91;67.92
41306;BME280;27051;50.376;19.152;2024-01-27T01:47:41;98622.20;;;4.91;67.78
41306;BME280;27051;50.376;19.152;2024-01-27T01:50:08;98617.88;;;4.92;67.69
41306;BME280;27051;50.376;19.152;2024-01-27T01:52:42;98617.85;;;4.92;67.69
41306;BME280;27051;50.376;19.152;2024-01-27T01:55:09;98614.91;;;4.94;67.57
41306;BME280;27051;50.376;19.152;2024-01-27T01:57:36;98617.04;;;4.94;67.57
41306;BME280;27051;50.376;19.152;2024-01-27T02:00:04;98613.20;;;4.94;67.60
41306;BME280;27051;50.376;19.152;2024-01-27T02:02:31;98614.54;;;4.97;67.53
41306;BME280;27051;50.376;19.152;2024-01-27T02:04:58;98618.09;;;4.98;67.33
41306;BME280;27051;50.376;19.152;2024-01-27T02:07:26;98618.55;;;4.96;67.22
41306;BME280;27051;50.376;19.152;2024-01-27T02:10:03;98623.98;;;4.96;67.25
41306;BME280;27051;50.376;19.152;2024-01-27T02:12:30;98627.00;;;4.98;67.12
41306;BME280;27051;50.376;19.152;2024-01-27T02:15:00;98622.05;;;4.98;67.01
41306;BME280;27051;50.376;19.152;2024-01-27T02:17:28;98621.32;;;4.96;67.09
41306;BME280;27051;50.376;19.152;2024-01-27T02:20:04;98626.02;;;4.95;66.83
41306;BME280;27051;50.376;19.152;2024-01-27T02:22:31;98624.09;;;4.95;66.86
41306;BME280;27051;50.376;19.152;2024-01-27T02:24:58;98622.31;;;4.94;66.68
41306;BME280;27051;50.376;19.152;2024-01-27T02:27:26;98623.55;;;4.96;66.58
41306;BME280;27051;50.376;19.152;2024-01-27T02:29:53;98629.00;;;4.92;66.61
41306;BME280;27051;50.376;19.152;2024-01-27T02:32:20;98637.27;;;4.88;66.44
41306;BME280;27051;50.376;19.152;2024-01-27T02:34:47;98635.43;;;4.86;66.44
41306;BME280;27051;50.376;19.152;2024-01-27T02:37:18;98630.20;;;4.86;66.41
41306;BME280;27051;50.376;19.152;2024-01-27T02:39:45;98631.02;;;4.84;66.32
41306;BME280;27051;50.376;19.152;2024-01-27T02:42:12;98628.98;;;4.82;66.13
41306;BME280;27051;50.376;19.152;2024-01-27T02:44:42;98633.38;;;4.80;66.13
41306;BME280;27051;50.376;19.152;2024-01-27T02:47:09;98635.95;;;4.78;66.24
41306;BME280;27051;50.376;19.152;2024-01-27T02:49:36;98636.80;;;4.79;66.34
41306;BME280;27051;50.376;19.152;2024-01-27T02:52:07;98638.02;;;4.80;66.15
41306;BME280;27051;50.376;19.152;2024-01-27T02:54:37;98638.45;;;4.78;66.25
41306;BME280;27051;50.376;19.152;2024-01-27T02:57:04;98642.02;;;4.79;66.22
41306;BME280;27051;50.376;19.152;2024-01-27T02:59:31;98635.69;;;4.79;66.26
41306;BME280;27051;50.376;19.152;2024-01-27T03:01:58;98635.25;;;4.79;66.24
41306;BME280;27051;50.376;19.152;2024-01-27T03:04:26;98629.67;;;4.82;66.22
41306;BME280;27051;50.376;19.152;2024-01-27T03:06:53;98629.77;;;4.79;65.60
41306;BME280;27051;50.376;19.152;2024-01-27T03:09:23;98634.04;;;4.78;65.92
41306;BME280;27051;50.376;19.152;2024-01-27T03:11:50;98644.46;;;4.79;65.82
41306;BME280;27051;50.376;19.152;2024-01-27T03:14:18;98660.94;;;4.78;65.94
41306;BME280;27051;50.376;19.152;2024-01-27T03:16:45;98665.15;;;4.73;66.25
41306;BME280;27051;50.376;19.152;2024-01-27T03:19:12;98668.50;;;4.66;66.27
41306;BME280;27051;50.376;19.152;2024-01-27T03:21:39;98669.83;;;4.58;66.39
41306;BME280;27051;50.376;19.152;2024-01-27T03:24:06;98667.52;;;4.54;66.55
41306;BME280;27051;50.376;19.152;2024-01-27T03:26:34;98668.42;;;4.53;66.56
41306;BME280;27051;50.376;19.152;2024-01-27T03:29:01;98666.00;;;4.53;66.62
41306;BME280;27051;50.376;19.152;2024-01-27T03:31:34;98662.54;;;4.52;66.47
41306;BME280;27051;50.376;19.152;2024-01-27T03:34:02;98675.95;;;4.53;66.62
41306;BME280;27051;50.376;19.152;2024-01-27T03:36:29;98683.50;;;4.53;66.63
41306;BME280;27051;50.376;19.152;2024-01-27T03:38:57;98682.17;;;4.49;66.67
41306;BME280;27051;50.376;19.152;2024-01-27T03:41:25;98676.36;;;4.50;66.85
41306;BME280;27051;50.376;19.152;2024-01-27T03:43:52;98675.05;;;4.48;67.03
41306;BME280;27051;50.376;19.152;2024-01-27T03:46:19;98673.46;;;4.43;67.11
41306;BME280;27051;50.376;19.152;2024-01-27T03:48:46;98682.83;;;4.39;67.23
41306;BME280;27051;50.376;19.152;2024-01-27T03:51:13;98695.53;;;4.40;67.31
41306;BME280;27051;50.376;19.152;2024-01-27T03:53:40;98694.20;;;4.40;67.58
41306;BME280;27051;50.376;19.152;2024-01-27T03:56:11;98694.19;;;4.30;67.63
41306;BME280;27051;50.376;19.152;2024-01-27T03:58:38;98697.61;;;4.25;67.67
41306;BME280;27051;50.376;19.152;2024-01-27T04:01:05;98705.65;;;4.23;67.81
41306;BME280;27051;50.376;19.152;2024-01-27T04:03:33;98708.47;;;4.19;67.78
41306;BME280;27051;50.376;19.152;2024-01-27T04:06:00;98713.65;;;4.18;67.85
41306;BME280;27051;50.376;19.152;2024-01-27T04:08:29;98716.52;;;4.17;67.87
41306;BME280;27051;50.376;19.152;2024-01-27T04:10:57;98718.98;;;4.16;67.72
41306;BME280;27051;50.376;19.152;2024-01-27T04:13:24;98718.31;;;4.19;67.82
41306;BME280;27051;50.376;19.152;2024-01-27T04:15:54;98718.96;;;4.23;67.51
41306;BME280;27051;50.376;19.152;2024-01-27T04:18:21;98717.20;;;4.23;67.63
41306;BME280;27051;50.376;19.152;2024-01-27T04:20:48;98721.89;;;4.23;67.42
41306;BME280;27051;50.376;19.152;2024-01-27T04:23:15;98726.20;;;4.24;67.39
41306;BME280;27051;50.376;19.152;2024-01-27T04:25:43;98727.52;;;4.25;67.41
41306;BME280;27051;50.376;19.152;2024-01-27T04:28:10;98729.48;;;4.26;67.19
41306;BME280;27051;50.376;19.152;2024-01-27T04:30:37;98733.28;;;4.24;67.23
41306;BME280;27051;50.376;19.152;2024-01-27T04:33:05;98735.05;;;4.22;67.17
41306;BME280;27051;50.376;19.152;2024-01-27T04:35:32;98733.83;;;4.22;67.18
41306;BME280;27051;50.376;19.152;2024-01-27T04:37:59;98733.13;;;4.26;67.26
41306;BME280;27051;50.376;19.152;2024-01-27T04:40:26;98728.30;;;4.26;66.96
41306;BME280;27051;50.376;19.152;2024-01-27T04:42:53;98736.40;;;4.25;66.98
41306;BME280;27051;50.376;19.152;2024-01-27T04:45:20;98736.55;;;4.21;66.93
41306;BME280;27051;50.376;19.152;2024-01-27T04:47:47;98745.31;;;4.23;67.07
41306;BME280;27051;50.376;19.152;2024-01-27T04:50:14;98742.34;;;4.23;67.14
41306;BME280;27051;50.376;19.152;2024-01-27T04:52:42;98749.83;;;4.23;67.09
41306;BME280;27051;50.376;19.152;2024-01-27T04:55:09;98751.35;;;4.26;66.96
41306;BME280;27051;50.376;19.152;2024-01-27T04:57:36;98755.08;;;4.25;67.06
41306;BME280;27051;50.376;19.152;2024-01-27T05:00:04;98755.98;;;4.25;66.92
41306;BME280;27051;50.376;19.152;2024-01-27T05:02:31;98758.23;;;4.29;66.96
41306;BME280;27051;50.376;19.152;2024-01-27T05:04:58;98756.53;;;4.34;66.94
41306;BME280;27051;50.376;19.152;2024-01-27T05:07:28;98756.71;;;4.38;66.83
41306;BME280;27051;50.376;19.152;2024-01-27T05:12:43;98758.98;;;4.41;66.65
41306;BME280;27051;50.376;19.152;2024-01-27T05:15:10;98762.60;;;4.45;66.52
41306;BME280;27051;50.376;19.152;2024-01-27T05:17:37;98767.17;;;4.45;66.40
41306;BME280;27051;50.376;19.152;2024-01-27T05:20:05;98761.89;;;4.43;66.07
41306;BME280;27051;50.376;19.152;2024-01-27T05:22:32;98759.63;;;4.45;66.31
41306;BME280;27051;50.376;19.152;2024-01-27T05:24:59;98764.54;;;4.44;65.91
41306;BME280;27051;50.376;19.152;2024-01-27T05:27:26;98757.91;;;4.40;65.96
41306;BME280;27051;50.376;19.152;2024-01-27T05:29:53;98763.26;;;4.38;65.85
41306;BME280;27051;50.376;19.152;2024-01-27T05:32:21;98756.63;;;4.40;65.81
41306;BME280;27051;50.376;19.152;2024-01-27T05:34:48;98754.75;;;4.43;65.55
41306;BME280;27051;50.376;19.152;2024-01-27T05:37:15;98755.95;;;4.40;65.45
41306;BME280;27051;50.376;19.152;2024-01-27T05:39:42;98758.36;;;4.39;65.59
41306;BME280;27051;50.376;19.152;2024-01-27T05:42:09;98758.52;;;4.40;65.72
41306;BME280;27051;50.376;19.152;2024-01-27T05:44:36;98754.11;;;4.43;65.73
41306;BME280;27051;50.376;19.152;2024-01-27T05:47:04;98749.07;;;4.41;65.45
41306;BME280;27051;50.376;19.152;2024-01-27T05:49:31;98751.44;;;4.39;65.52
41306;BME280;27051;50.376;19.152;2024-01-27T05:51:58;98756.71;;;4.39;65.58
41306;BME280;27051;50.376;19.152;2024-01-27T05:54:25;98753.33;;;4.41;65.35
41306;BME280;27051;50.376;19.152;2024-01-27T05:56:52;98759.98;;;4.36;65.20
41306;BME280;27051;50.376;19.152;2024-01-27T05:59:20;98765.45;;;4.37;65.56
41306;BME280;27051;50.376;19.152;2024-01-27T06:01:47;98765.17;;;4.38;65.24
41306;BME280;27051;50.376;19.152;2024-01-27T06:04:14;98762.36;;;4.37;65.26
41306;BME280;27051;50.376;19.152;2024-01-27T06:06:41;98760.28;;;4.37;65.29
41306;BME280;27051;50.376;19.152;2024-01-27T06:09:08;98753.75;;;4.37;64.93
41306;BME280;27051;50.376;19.152;2024-01-27T06:11:35;98760.30;;;4.34;65.00
41306;BME280;27051;50.376;19.152;2024-01-27T06:14:02;98759.80;;;4.33;65.05
41306;BME280;27051;50.376;19.152;2024-01-27T06:16:29;98759.80;;;4.31;64.77
41306;BME280;27051;50.376;19.152;2024-01-27T06:18:56;98767.58;;;4.27;64.67
41306;BME280;27051;50.376;19.152;2024-01-27T06:21:23;98769.48;;;4.23;64.70
41306;BME280;27051;50.376;19.152;2024-01-27T06:23:50;98763.77;;;4.23;65.05
41306;BME280;27051;50.376;19.152;2024-01-27T06:26:17;98767.02;;;4.23;64.70
41306;BME280;27051;50.376;19.152;2024-01-27T06:28:44;98769.19;;;4.18;64.75
41306;BME280;27051;50.376;19.152;2024-01-27T06:31:11;98774.30;;;4.17;64.48
41306;BME280;27051;50.376;19.152;2024-01-27T06:33:39;98775.90;;;4.11;64.38
41306;BME280;27051;50.376;19.152;2024-01-27T06:36:06;98781.95;;;4.12;64.63
41306;BME280;27051;50.376;19.152;2024-01-27T06:38:33;98789.29;;;4.14;64.68
41306;BME280;27051;50.376;19.152;2024-01-27T06:41:00;98785.50;;;4.14;64.46
41306;BME280;27051;50.376;19.152;2024-01-27T06:43:27;98785.98;;;4.13;64.37
41306;BME280;27051;50.376;19.152;2024-01-27T06:45:54;98785.46;;;4.13;64.43
41306;BME280;27051;50.376;19.152;2024-01-27T06:48:21;98795.52;;;4.14;64.41
41306;BME280;27051;50.376;19.152;2024-01-27T06:50:48;98792.52;;;4.09;64.15
41306;BME280;27051;50.376;19.152;2024-01-27T06:53:15;98795.23;;;4.09;64.34
41306;BME280;27051;50.376;19.152;2024-01-27T06:55:42;98798.88;;;4.11;64.17
41306;BME280;27051;50.376;19.152;2024-01-27T06:58:10;98802.29;;;4.11;64.30
41306;BME280;27051;50.376;19.152;2024-01-27T07:00:37;98807.08;;;4.12;64.35
41306;BME280;27051;50.376;19.152;2024-01-27T07:03:05;98808.34;;;4.12;64.56
41306;BME280;27051;50.376;19.152;2024-01-27T07:05:32;98806.46;;;4.15;64.32
41306;BME280;27051;50.376;19.152;2024-01-27T07:07:59;98804.44;;;4.14;64.18
41306;BME280;27051;50.376;19.152;2024-01-27T07:10:26;98811.23;;;4.17;64.16
41306;BME280;27051;50.376;19.152;2024-01-27T07:12:53;98803.05;;;4.18;63.95
41306;BME280;27051;50.376;19.152;2024-01-27T07:15:20;98806.09;;;4.15;63.79
41306;BME280;27051;50.376;19.152;2024-01-27T07:17:47;98799.50;;;4.13;63.99
41306;BME280;27051;50.376;19.152;2024-01-27T07:20:15;98807.10;;;4.16;63.75
41306;BME280;27051;50.376;19.152;2024-01-27T07:22:42;98804.89;;;4.19;64.08
41306;BME280;27051;50.376;19.152;2024-01-27T07:25:09;98803.98;;;4.25;63.74
41306;BME280;27051;50.376;19.152;2024-01-27T07:27:36;98801.73;;;4.26;63.44
41306;BME280;27051;50.376;19.152;2024-01-27T07:30:04;98807.25;;;4.23;63.12
41306;BME280;27051;50.376;19.152;2024-01-27T07:32:31;98804.95;;;4.19;63.29
41306;BME280;27051;50.376;19.152;2024-01-27T07:35:01;98808.80;;;4.20;63.61
41306;BME280;27051;50.376;19.152;2024-01-27T07:37:28;98802.90;;;4.20;63.18
41306;BME280;27051;50.376;19.152;2024-01-27T07:39:58;98812.76;;;4.21;63.22
41306;BME280;27051;50.376;19.152;2024-01-27T07:42:25;98813.41;;;4.18;63.05
41306;BME280;27051;50.376;19.152;2024-01-27T07:44:52;98822.38;;;4.16;63.19
41306;BME280;27051;50.376;19.152;2024-01-27T07:47:19;98824.10;;;4.19;63.16
41306;BME280;27051;50.376;19.152;2024-01-27T07:49:47;98829.27;;;4.19;63.09
41306;BME280;27051;50.376;19.152;2024-01-27T07:52:14;98831.39;;;4.19;63.30
41306;BME280;27051;50.376;19.152;2024-01-27T07:54:41;98830.14;;;4.24;63.08
41306;BME280;27051;50.376;19.152;2024-01-27T07:57:08;98834.04;;;4.27;62.93
41306;BME280;27051;50.376;19.152;2024-01-27T07:59:35;98840.69;;;4.28;62.67
41306;BME280;27051;50.376;19.152;2024-01-27T08:02:05;98839.53;;;4.31;63.00
41306;BME280;27051;50.376;19.152;2024-01-27T08:04:32;98834.55;;;4.34;62.77
41306;BME280;27051;50.376;19.152;2024-01-27T08:06:59;98832.02;;;4.32;62.44
41306;BME280;27051;50.376;19.152;2024-01-27T08:09:26;98836.56;;;4.25;62.26
41306;BME280;27051;50.376;19.152;2024-01-27T08:11:53;98840.77;;;4.24;62.55
41306;BME280;27051;50.376;19.152;2024-01-27T08:14:20;98837.79;;;4.23;62.88
41306;BME280;27051;50.376;19.152;2024-01-27T08:16:47;98829.10;;;4.24;62.69
41306;BME280;27051;50.376;19.152;2024-01-27T08:19:15;98828.14;;;4.25;62.92
41306;BME280;27051;50.376;19.152;2024-01-27T08:21:42;98831.47;;;4.28;62.57
41306;BME280;27051;50.376;19.152;2024-01-27T08:24:09;98824.34;;;4.27;62.54
41306;BME280;27051;50.376;19.152;2024-01-27T08:26:36;98818.42;;;4.29;62.36
41306;BME280;27051;50.376;19.152;2024-01-27T08:29:03;98819.01;;;4.29;62.72
41306;BME280;27051;50.376;19.152;2024-01-27T08:31:30;98822.58;;;4.29;62.80
41306;BME280;27051;50.376;19.152;2024-01-27T08:33:57;98824.24;;;4.27;63.15
41306;BME280;27051;50.376;19.152;2024-01-27T08:36:24;98825.23;;;4.15;63.32
41306;BME280;27051;50.376;19.152;2024-01-27T08:38:52;98826.36;;;4.07;63.68
41306;BME280;27051;50.376;19.152;2024-01-27T08:41:19;98831.20;;;4.01;64.09
41306;BME280;27051;50.376;19.152;2024-01-27T08:43:46;98834.54;;;3.96;64.19
41306;BME280;27051;50.376;19.152;2024-01-27T08:46:13;98835.66;;;3.88;64.72
41306;BME280;27051;50.376;19.152;2024-01-27T08:48:40;98837.16;;;3.80;65.11
41306;BME280;27051;50.376;19.152;2024-01-27T08:51:10;98836.91;;;3.77;65.07
41306;BME280;27051;50.376;19.152;2024-01-27T08:53:37;98838.87;;;3.76;65.44
41306;BME280;27051;50.376;19.152;2024-01-27T08:56:05;98843.23;;;3.68;65.89
41306;BME280;27051;50.376;19.152;2024-01-27T08:58:32;98842.98;;;3.58;66.03
41306;BME280;27051;50.376;19.152;2024-01-27T09:00:59;98842.20;;;3.52;66.20
41306;BME280;27051;50.376;19.152;2024-01-27T09:03:26;98844.58;;;3.45;66.31
41306;BME280;27051;50.376;19.152;2024-01-27T09:05:54;98850.30;;;3.39;66.48
41306;BME280;27051;50.376;19.152;2024-01-27T09:08:21;98853.89;;;3.40;66.87
41306;BME280;27051;50.376;19.152;2024-01-27T09:10:48;98859.92;;;3.37;66.78
41306;BME280;27051;50.376;19.152;2024-01-27T09:13:15;98860.88;;;3.36;67.03
41306;BME280;27051;50.376;19.152;2024-01-27T09:15:42;98862.68;;;3.38;66.97
41306;BME280;27051;50.376;19.152;2024-01-27T09:18:09;98865.15;;;3.43;67.20
41306;BME280;27051;50.376;19.152;2024-01-27T09:20:36;98864.22;;;3.49;67.18
41306;BME280;27051;50.376;19.152;2024-01-27T09:23:03;98856.84;;;3.51;67.43
41306;BME280;27051;50.376;19.152;2024-01-27T09:25:30;98857.05;;;3.47;67.71
41306;BME280;27051;50.376;19.152;2024-01-27T09:27:57;98859.63;;;3.42;67.80
41306;BME280;27051;50.376;19.152;2024-01-27T09:30:24;98862.05;;;3.36;67.77
41306;BME280;27051;50.376;19.152;2024-01-27T09:32:51;98867.63;;;3.37;67.94
41306;BME280;27051;50.376;19.152;2024-01-27T09:35:18;98873.25;;;3.39;67.93
41306;BME280;27051;50.376;19.152;2024-01-27T09:37:46;98873.42;;;3.36;68.03
41306;BME280;27051;50.376;19.152;2024-01-27T09:40:13;98868.60;;;3.33;68.19
41306;BME280;27051;50.376;19.152;2024-01-27T09:42:44;98867.55;;;3.31;68.45
41306;BME280;27051;50.376;19.152;2024-01-27T09:45:16;98861.30;;;3.25;68.33
41306;BME280;27051;50.376;19.152;2024-01-27T09:47:44;98863.67;;;3.27;68.25
41306;BME280;27051;50.376;19.152;2024-01-27T09:50:14;98866.02;;;3.28;68.40
41306;BME280;27051;50.376;19.152;2024-01-27T09:52:41;98862.61;;;3.27;68.37
41306;BME280;27051;50.376;19.152;2024-01-27T09:55:11;98866.42;;;3.32;68.86
41306;BME280;27051;50.376;19.152;2024-01-27T09:57:38;98863.70;;;3.33;68.65
41306;BME280;27051;50.376;19.152;2024-01-27T10:00:10;98869.45;;;3.35;68.68
41306;BME280;27051;50.376;19.152;2024-01-27T10:02:41;98870.69;;;3.42;68.82
41306;BME280;27051;50.376;19.152;2024-01-27T10:05:12;98867.83;;;3.53;68.71
41306;BME280;27051;50.376;19.152;2024-01-27T10:07:40;98864.14;;;3.59;68.68
41306;BME280;27051;50.376;19.152;2024-01-27T10:10:07;98862.98;;;3.63;68.76
41306;BME280;27051;50.376;19.152;2024-01-27T10:12:43;98863.26;;;3.60;68.81
41306;BME280;27051;50.376;19.152;2024-01-27T10:15:21;98856.09;;;3.61;68.96
41306;BME280;27051;50.376;19.152;2024-01-27T10:17:49;98861.80;;;3.67;68.95
41306;BME280;27051;50.376;19.152;2024-01-27T10:20:16;98860.23;;;3.72;68.78
41306;BME280;27051;50.376;19.152;2024-01-27T10:22:44;98865.17;;;3.74;68.96
41306;BME280;27051;50.376;19.152;2024-01-27T10:25:12;98862.52;;;3.70;68.86
41306;BME280;27051;50.376;19.152;2024-01-27T10:27:39;98869.70;;;3.70;69.02
41306;BME280;27051;50.376;19.152;2024-01-27T10:30:15;98866.27;;;3.76;68.85
41306;BME280;27051;50.376;19.152;2024-01-27T10:32:43;98861.72;;;3.80;69.08
41306;BME280;27051;50.376;19.152;2024-01-27T10:35:10;98858.22;;;3.86;68.91
41306;BME280;27051;50.376;19.152;2024-01-27T10:37:37;98871.11;;;3.92;69.03
41306;BME280;27051;50.376;19.152;2024-01-27T10:40:07;98872.43;;;3.92;69.08
41306;BME280;27051;50.376;19.152;2024-01-27T10:42:35;98867.53;;;3.94;68.99
41306;BME280;27051;50.376;19.152;2024-01-27T10:45:04;98875.25;;;3.95;69.17
41306;BME280;27051;50.376;19.152;2024-01-27T10:47:32;98875.56;;;3.95;68.98
41306;BME280;27051;50.376;19.152;2024-01-27T10:50:00;98875.25;;;4.01;69.06
41306;BME280;27051;50.376;19.152;2024-01-27T10:52:31;98877.51;;;4.06;69.11
41306;BME280;27051;50.376;19.152;2024-01-27T10:54:59;98879.77;;;4.09;69.07
41306;BME280;27051;50.376;19.152;2024-01-27T10:57:29;98877.19;;;4.14;68.89
41306;BME280;27051;50.376;19.152;2024-01-27T10:59:57;98881.63;;;4.19;68.85
41306;BME280;27051;50.376;19.152;2024-01-27T11:02:24;98880.04;;;4.25;68.83
41306;BME280;27051;50.376;19.152;2024-01-27T11:04:51;98883.08;;;4.31;69.01
41306;BME280;27051;50.376;19.152;2024-01-27T11:07:19;98882.84;;;4.33;68.97
41306;BME280;27051;50.376;19.152;2024-01-27T11:09:49;98886.65;;;4.36;68.80
41306;BME280;27051;50.376;19.152;2024-01-27T11:12:17;98884.34;;;4.39;68.71
41306;BME280;27051;50.376;19.152;2024-01-27T11:14:45;98888.48;;;4.33;68.77
41306;BME280;27051;50.376;19.152;2024-01-27T11:17:12;98890.63;;;4.25;68.78
41306;BME280;27051;50.376;19.152;2024-01-27T11:19:40;98892.97;;;4.23;68.79
41306;BME280;27051;50.376;19.152;2024-01-27T11:22:07;98895.45;;;4.19;68.76
41306;BME280;27051;50.376;19.152;2024-01-27T11:24:38;98900.22;;;4.15;68.91
41306;BME280;27051;50.376;19.152;2024-01-27T11:27:05;98902.70;;;4.09;68.87
41306;BME280;27051;50.376;19.152;2024-01-27T11:29:33;98907.02;;;4.02;69.06
41306;BME280;27051;50.376;19.152;2024-01-27T11:32:04;98909.65;;;3.96;69.06
41306;BME280;27051;50.376;19.152;2024-01-27T11:34:45;98912.86;;;3.95;69.21
41306;BME280;27051;50.376;19.152;2024-01-27T11:37:16;98914.45;;;3.95;69.23
41306;BME280;27051;50.376;19.152;2024-01-27T11:39:43;98915.67;;;3.95;69.30
41306;BME280;27051;50.376;19.152;2024-01-27T11:42:13;98922.98;;;3.90;69.12
41306;BME280;27051;50.376;19.152;2024-01-27T11:44:41;98923.83;;;3.90;69.39
41306;BME280;27051;50.376;19.152;2024-01-27T11:47:16;98928.14;;;3.90;69.30
41306;BME280;27051;50.376;19.152;2024-01-27T11:49:50;98936.13;;;3.90;69.35
41306;BME280;27051;50.376;19.152;2024-01-27T11:52:18;98935.39;;;3.87;69.45
41306;BME280;27051;50.376;19.152;2024-01-27T11:54:45;98939.48;;;3.90;69.55
41306;BME280;27051;50.376;19.152;2024-01-27T11:57:12;98935.84;;;4.02;69.75
41306;BME280;27051;50.376;19.152;2024-01-27T11:59:39;98939.71;;;4.11;69.85
41306;BME280;27051;50.376;19.152;2024-01-27T12:02:06;98939.33;;;4.14;69.54
41306;BME280;27051;50.376;19.152;2024-01-27T12:04:34;98940.95;;;4.11;69.44
41306;BME280;27051;50.376;19.152;2024-01-27T12:07:01;98946.02;;;4.17;69.65
41306;BME280;27051;50.376;19.152;2024-01-27T12:09:28;98944.30;;;4.20;69.48
41306;BME280;27051;50.376;19.152;2024-01-27T12:11:55;98950.59;;;4.26;69.50
41306;BME280;27051;50.376;19.152;2024-01-27T12:14:23;98949.64;;;4.26;69.29
41306;BME280;27051;50.376;19.152;2024-01-27T12:16:50;98954.65;;;4.25;69.28
41306;BME280;27051;50.376;19.152;2024-01-27T12:19:17;98954.29;;;4.30;69.52
41306;BME280;27051;50.376;19.152;2024-01-27T12:21:50;98951.61;;;4.31;69.25
41306;BME280;27051;50.376;19.152;2024-01-27T12:24:17;98954.95;;;4.28;69.29
41306;BME280;27051;50.376;19.152;2024-01-27T12:26:44;98958.20;;;4.27;69.44
41306;BME280;27051;50.376;19.152;2024-01-27T12:29:12;98955.77;;;4.31;69.36
41306;BME280;27051;50.376;19.152;2024-01-27T12:31:39;98956.83;;;4.32;69.35
41306;BME280;27051;50.376;19.152;2024-01-27T12:34:07;98960.04;;;4.40;69.58
41306;BME280;27051;50.376;19.152;2024-01-27T12:36:42;98956.81;;;4.42;69.30
41306;BME280;27051;50.376;19.152;2024-01-27T12:39:10;98962.27;;;4.38;69.14
41306;BME280;27051;50.376;19.152;2024-01-27T12:41:37;98962.39;;;4.40;69.43
41306;BME280;27051;50.376;19.152;2024-01-27T12:44:05;98969.17;;;4.42;69.40
41306;BME280;27051;50.376;19.152;2024-01-27T12:46:33;98970.66;;;4.42;69.35
41306;BME280;27051;50.376;19.152;2024-01-27T12:49:00;98975.10;;;4.38;69.10
41306;BME280;27051;50.376;19.152;2024-01-27T12:51:36;98975.52;;;4.34;69.23
41306;BME280;27051;50.376;19.152;2024-01-27T12:54:03;98975.02;;;4.34;69.23
41306;BME280;27051;50.376;19.152;2024-01-27T12:56:30;98980.48;;;4.38;69.43
41306;BME280;27051;50.376;19.152;2024-01-27T12:58:57;98978.87;;;4.41;69.42
41306;BME280;27051;50.376;19.152;2024-01-27T13:01:24;98986.06;;;4.41;69.33
41306;BME280;27051;50.376;19.152;2024-01-27T13:03:52;98985.36;;;4.41;69.24
41306;BME280;27051;50.376;19.152;2024-01-27T13:06:19;98990.50;;;4.36;69.37